Terminal Aerodrome Forecast
Issued by NWS

Home | Current Version | Previous Version | Text Only | Print | Product List | Glossary On
Versions: 1 2 3 4 5 6 7 8 9 10 11 12 13 14 15 16 17 18 19 20 21 22 23 24 25 26 27 28
000
FTAK31 PAFA 271728
TAFABT
TAF
PABT 271728Z 2718/2818 15003KT 3SM -RA BR SCT006 BKN012 OVC050
     FM272000 19005KT P6SM VCSH SCT012 BKN050 OVC100
     FM280600 17002KT P6SM SCT050 BKN100
     FM281100 15003KT P6SM VCFG SCT025 BKN050 OVC100
     FM281600 VRB03KT 4SM BR SCT050 BKN100=

USA.gov is the U.S. government's official web portal to all federal, state and local government web resources and services.